sensor_id;sensor_type;location;lat;lon;timestamp;P1;durP1;ratioP1;P2;durP2;ratioP2
52041;SDS011;38052;45.944;13.624;2022-10-23T00:00:11;1.58;;;0.40;;
52041;SDS011;38052;45.944;13.624;2022-10-23T00:02:39;3.13;;;0.50;;
52041;SDS011;38052;45.944;13.624;2022-10-23T00:05:05;1.00;;;0.40;;
52041;SDS011;38052;45.944;13.624;2022-10-23T00:07:32;1.27;;;0.30;;
52041;SDS011;38052;45.944;13.624;2022-10-23T00:09:59;5.50;;;0.32;;
52041;SDS011;38052;45.944;13.624;2022-10-23T00:12:25;2.38;;;0.70;;
52041;SDS011;38052;45.944;13.624;2022-10-23T00:14:52;3.15;;;1.10;;
52041;SDS011;38052;45.944;13.624;2022-10-23T00:17:18;3.92;;;0.52;;
52041;SDS011;38052;45.944;13.624;2022-10-23T00:19:45;4.22;;;0.57;;
52041;SDS011;38052;45.944;13.624;2022-10-23T00:22:12;5.05;;;0.45;;
52041;SDS011;38052;45.944;13.624;2022-10-23T00:24:38;4.55;;;0.63;;
52041;SDS011;38052;45.944;13.624;2022-10-23T00:27:05;1.42;;;0.40;;
52041;SDS011;38052;45.944;13.624;2022-10-23T00:29:31;6.07;;;1.00;;
52041;SDS011;38052;45.944;13.624;2022-10-23T00:31:57;3.38;;;0.68;;
52041;SDS011;38052;45.944;13.624;2022-10-23T00:34:24;2.55;;;0.30;;
52041;SDS011;38052;45.944;13.624;2022-10-23T00:36:51;1.00;;;0.40;;
52041;SDS011;38052;45.944;13.624;2022-10-23T00:39:17;3.08;;;0.65;;
52041;SDS011;38052;45.944;13.624;2022-10-23T00:41:43;4.50;;;0.70;;
52041;SDS011;38052;45.944;13.624;2022-10-23T00:45:05;3.05;;;0.70;;
52041;SDS011;38052;45.944;13.624;2022-10-23T00:46:56;2.42;;;0.93;;
52041;SDS011;38052;45.944;13.624;2022-10-23T00:49:23;2.72;;;0.65;;
52041;SDS011;38052;45.944;13.624;2022-10-23T00:51:53;2.42;;;0.63;;
52041;SDS011;38052;45.944;13.624;2022-10-23T00:54:22;1.88;;;0.70;;
52041;SDS011;38052;45.944;13.624;2022-10-23T00:56:50;1.08;;;0.40;;
52041;SDS011;38052;45.944;13.624;2022-10-23T00:59:17;3.42;;;0.68;;
52041;SDS011;38052;45.944;13.624;2022-10-23T01:01:44;3.92;;;0.85;;
52041;SDS011;38052;45.944;13.624;2022-10-23T01:04:10;2.40;;;0.40;;
52041;SDS011;38052;45.944;13.624;2022-10-23T01:06:41;5.45;;;0.68;;
52041;SDS011;38052;45.944;13.624;2022-10-23T01:11:49;3.08;;;0.50;;
52041;SDS011;38052;45.944;13.624;2022-10-23T01:24:59;7.78;;;0.80;;
52041;SDS011;38052;45.944;13.624;2022-10-23T01:32:29;3.37;;;0.43;;
52041;SDS011;38052;45.944;13.624;2022-10-23T01:35:01;2.50;;;0.30;;
52041;SDS011;38052;45.944;13.624;2022-10-23T01:37:30;3.25;;;0.47;;
52041;SDS011;38052;45.944;13.624;2022-10-23T01:39:59;2.53;;;0.40;;
52041;SDS011;38052;45.944;13.624;2022-10-23T01:42:31;3.42;;;0.55;;
52041;SDS011;38052;45.944;13.624;2022-10-23T01:45:01;1.45;;;0.40;;
52041;SDS011;38052;45.944;13.624;2022-10-23T01:47:29;2.25;;;0.50;;
52041;SDS011;38052;45.944;13.624;2022-10-23T01:49:55;3.38;;;0.90;;
52041;SDS011;38052;45.944;13.624;2022-10-23T01:52:23;1.13;;;0.40;;
52041;SDS011;38052;45.944;13.624;2022-10-23T01:54:50;1.83;;;0.68;;
52041;SDS011;38052;45.944;13.624;2022-10-23T01:57:19;2.83;;;0.68;;
52041;SDS011;38052;45.944;13.624;2022-10-23T01:59:50;2.72;;;0.50;;
52041;SDS011;38052;45.944;13.624;2022-10-23T02:02:18;2.67;;;0.60;;
52041;SDS011;38052;45.944;13.624;2022-10-23T02:07:51;1.42;;;0.60;;
52041;SDS011;38052;45.944;13.624;2022-10-23T02:10:18;2.78;;;0.45;;
52041;SDS011;38052;45.944;13.624;2022-10-23T02:15:20;3.38;;;0.50;;
52041;SDS011;38052;45.944;13.624;2022-10-23T02:18:05;4.03;;;0.30;;
52041;SDS011;38052;45.944;13.624;2022-10-23T02:20:41;1.58;;;0.47;;
52041;SDS011;38052;45.944;13.624;2022-10-23T02:23:21;5.25;;;0.50;;
52041;SDS011;38052;45.944;13.624;2022-10-23T02:28:17;1.45;;;0.30;;
52041;SDS011;38052;45.944;13.624;2022-10-23T02:30:44;2.75;;;0.55;;
52041;SDS011;38052;45.944;13.624;2022-10-23T02:33:12;2.15;;;0.40;;
52041;SDS011;38052;45.944;13.624;2022-10-23T02:35:39;2.25;;;0.35;;
52041;SDS011;38052;45.944;13.624;2022-10-23T02:38:27;2.30;;;0.60;;
52041;SDS011;38052;45.944;13.624;2022-10-23T02:40:53;1.75;;;0.50;;
52041;SDS011;38052;45.944;13.624;2022-10-23T02:43:23;2.88;;;0.30;;
52041;SDS011;38052;45.944;13.624;2022-10-23T02:46:01;1.13;;;0.40;;
52041;SDS011;38052;45.944;13.624;2022-10-23T02:48:35;4.30;;;0.38;;
52041;SDS011;38052;45.944;13.624;2022-10-23T02:51:05;1.63;;;0.28;;
52041;SDS011;38052;45.944;13.624;2022-10-23T02:56:20;4.38;;;0.93;;
52041;SDS011;38052;45.944;13.624;2022-10-23T02:58:58;1.60;;;0.40;;
52041;SDS011;38052;45.944;13.624;2022-10-23T03:01:26;6.85;;;0.45;;
52041;SDS011;38052;45.944;13.624;2022-10-23T03:03:55;3.30;;;0.40;;
52041;SDS011;38052;45.944;13.624;2022-10-23T03:06:22;1.70;;;0.32;;
52041;SDS011;38052;45.944;13.624;2022-10-23T03:09:01;4.88;;;0.47;;
52041;SDS011;38052;45.944;13.624;2022-10-23T03:11:28;1.75;;;0.50;;
52041;SDS011;38052;45.944;13.624;2022-10-23T03:13:55;3.42;;;0.93;;
52041;SDS011;38052;45.944;13.624;2022-10-23T03:16:22;2.45;;;0.30;;
52041;SDS011;38052;45.944;13.624;2022-10-23T03:18:48;1.23;;;0.30;;
52041;SDS011;38052;45.944;13.624;2022-10-23T03:21:14;2.13;;;0.32;;
52041;SDS011;38052;45.944;13.624;2022-10-23T03:23:41;1.92;;;0.30;;
52041;SDS011;38052;45.944;13.624;2022-10-23T03:26:07;7.10;;;0.75;;
52041;SDS011;38052;45.944;13.624;2022-10-23T03:28:33;1.67;;;0.43;;
52041;SDS011;38052;45.944;13.624;2022-10-23T03:31:00;3.60;;;0.70;;
52041;SDS011;38052;45.944;13.624;2022-10-23T03:33:28;4.88;;;0.55;;
52041;SDS011;38052;45.944;13.624;2022-10-23T03:35:54;0.75;;;0.25;;
52041;SDS011;38052;45.944;13.624;2022-10-23T03:38:20;4.57;;;0.50;;
52041;SDS011;38052;45.944;13.624;2022-10-23T03:40:46;2.25;;;0.50;;
52041;SDS011;38052;45.944;13.624;2022-10-23T03:43:13;1.30;;;0.35;;
52041;SDS011;38052;45.944;13.624;2022-10-23T03:45:39;2.45;;;0.65;;
52041;SDS011;38052;45.944;13.624;2022-10-23T03:48:06;1.20;;;0.30;;
52041;SDS011;38052;45.944;13.624;2022-10-23T03:50:32;5.90;;;0.55;;
52041;SDS011;38052;45.944;13.624;2022-10-23T03:52:59;2.15;;;0.52;;
52041;SDS011;38052;45.944;13.624;2022-10-23T03:55:25;3.75;;;0.57;;
52041;SDS011;38052;45.944;13.624;2022-10-23T03:57:53;7.88;;;0.75;;
52041;SDS011;38052;45.944;13.624;2022-10-23T04:00:19;1.63;;;0.52;;
52041;SDS011;38052;45.944;13.624;2022-10-23T04:02:46;1.98;;;0.30;;
52041;SDS011;38052;45.944;13.624;2022-10-23T04:05:12;4.35;;;0.52;;
52041;SDS011;38052;45.944;13.624;2022-10-23T04:07:38;1.30;;;0.30;;
52041;SDS011;38052;45.944;13.624;2022-10-23T04:10:05;2.25;;;0.50;;
52041;SDS011;38052;45.944;13.624;2022-10-23T04:12:32;2.60;;;0.60;;
52041;SDS011;38052;45.944;13.624;2022-10-23T04:14:59;2.58;;;0.50;;
52041;SDS011;38052;45.944;13.624;2022-10-23T04:17:25;7.28;;;0.98;;
52041;SDS011;38052;45.944;13.624;2022-10-23T04:19:52;1.20;;;0.20;;
52041;SDS011;38052;45.944;13.624;2022-10-23T04:22:18;1.13;;;0.43;;
52041;SDS011;38052;45.944;13.624;2022-10-23T04:24:45;3.67;;;0.32;;
52041;SDS011;38052;45.944;13.624;2022-10-23T04:27:12;2.63;;;0.30;;
52041;SDS011;38052;45.944;13.624;2022-10-23T04:29:38;6.10;;;0.55;;
52041;SDS011;38052;45.944;13.624;2022-10-23T04:32:05;2.83;;;0.30;;
52041;SDS011;38052;45.944;13.624;2022-10-23T04:34:32;3.70;;;0.40;;
52041;SDS011;38052;45.944;13.624;2022-10-23T04:36:58;3.15;;;0.60;;
52041;SDS011;38052;45.944;13.624;2022-10-23T04:39:24;1.33;;;0.50;;
52041;SDS011;38052;45.944;13.624;2022-10-23T04:41:51;3.67;;;0.68;;
52041;SDS011;38052;45.944;13.624;2022-10-23T04:44:18;2.55;;;0.60;;
52041;SDS011;38052;45.944;13.624;2022-10-23T04:46:44;3.17;;;0.30;;
52041;SDS011;38052;45.944;13.624;2022-10-23T04:49:10;1.27;;;0.40;;
52041;SDS011;38052;45.944;13.624;2022-10-23T04:51:37;4.30;;;0.75;;
52041;SDS011;38052;45.944;13.624;2022-10-23T04:54:03;9.32;;;0.77;;
52041;SDS011;38052;45.944;13.624;2022-10-23T04:56:30;2.20;;;0.60;;
52041;SDS011;38052;45.944;13.624;2022-10-23T04:58:56;1.38;;;0.88;;
52041;SDS011;38052;45.944;13.624;2022-10-23T05:01:22;2.65;;;0.47;;
52041;SDS011;38052;45.944;13.624;2022-10-23T05:03:49;1.00;;;0.60;;
52041;SDS011;38052;45.944;13.624;2022-10-23T05:06:15;3.20;;;0.65;;
52041;SDS011;38052;45.944;13.624;2022-10-23T05:08:41;0.93;;;0.40;;
52041;SDS011;38052;45.944;13.624;2022-10-23T05:11:07;3.92;;;0.55;;
52041;SDS011;38052;45.944;13.624;2022-10-23T05:13:34;4.13;;;0.85;;
52041;SDS011;38052;45.944;13.624;2022-10-23T05:16:00;8.48;;;0.55;;
52041;SDS011;38052;45.944;13.624;2022-10-23T05:18:28;5.05;;;0.82;;
52041;SDS011;38052;45.944;13.624;2022-10-23T05:21:03;3.28;;;0.60;;
52041;SDS011;38052;45.944;13.624;2022-10-23T05:23:30;5.18;;;0.90;;
52041;SDS011;38052;45.944;13.624;2022-10-23T05:25:58;3.33;;;0.45;;
52041;SDS011;38052;45.944;13.624;2022-10-23T05:28:24;3.70;;;0.73;;
52041;SDS011;38052;45.944;13.624;2022-10-23T05:30:50;3.40;;;0.73;;
52041;SDS011;38052;45.944;13.624;2022-10-23T05:33:17;4.55;;;1.23;;
52041;SDS011;38052;45.944;13.624;2022-10-23T05:35:43;3.50;;;0.98;;
52041;SDS011;38052;45.944;13.624;2022-10-23T05:38:10;2.30;;;0.50;;
52041;SDS011;38052;45.944;13.624;2022-10-23T05:40:36;5.82;;;0.60;;
52041;SDS011;38052;45.944;13.624;2022-10-23T05:43:03;4.50;;;1.13;;
52041;SDS011;38052;45.944;13.624;2022-10-23T05:45:29;1.65;;;1.10;;
52041;SDS011;38052;45.944;13.624;2022-10-23T05:47:56;3.63;;;0.98;;
52041;SDS011;38052;45.944;13.624;2022-10-23T05:50:23;5.50;;;1.20;;
52041;SDS011;38052;45.944;13.624;2022-10-23T05:52:50;3.70;;;0.90;;
52041;SDS011;38052;45.944;13.624;2022-10-23T05:55:16;1.50;;;0.75;;
52041;SDS011;38052;45.944;13.624;2022-10-23T05:57:42;5.03;;;0.88;;
52041;SDS011;38052;45.944;13.624;2022-10-23T06:00:09;2.63;;;0.93;;
52041;SDS011;38052;45.944;13.624;2022-10-23T06:02:38;3.97;;;0.95;;
52041;SDS011;38052;45.944;13.624;2022-10-23T06:05:04;9.18;;;1.20;;
52041;SDS011;38052;45.944;13.624;2022-10-23T06:07:31;2.22;;;0.70;;
52041;SDS011;38052;45.944;13.624;2022-10-23T06:09:57;4.20;;;1.13;;
52041;SDS011;38052;45.944;13.624;2022-10-23T06:12:23;1.60;;;0.57;;
52041;SDS011;38052;45.944;13.624;2022-10-23T06:14:50;2.85;;;0.60;;
52041;SDS011;38052;45.944;13.624;2022-10-23T06:17:17;2.55;;;1.02;;
52041;SDS011;38052;45.944;13.624;2022-10-23T06:19:43;13.77;;;1.02;;
52041;SDS011;38052;45.944;13.624;2022-10-23T06:22:10;6.47;;;0.88;;
52041;SDS011;38052;45.944;13.624;2022-10-23T06:24:36;3.25;;;1.00;;
52041;SDS011;38052;45.944;13.624;2022-10-23T06:27:03;3.78;;;1.02;;
52041;SDS011;38052;45.944;13.624;2022-10-23T06:29:29;6.07;;;1.05;;
52041;SDS011;38052;45.944;13.624;2022-10-23T06:31:56;7.03;;;1.20;;
52041;SDS011;38052;45.944;13.624;2022-10-23T06:34:22;4.68;;;1.13;;
52041;SDS011;38052;45.944;13.624;2022-10-23T06:36:49;4.90;;;1.17;;
52041;SDS011;38052;45.944;13.624;2022-10-23T06:39:15;2.38;;;1.25;;
52041;SDS011;38052;45.944;13.624;2022-10-23T06:41:41;9.95;;;1.40;;
52041;SDS011;38052;45.944;13.624;2022-10-23T06:44:09;7.40;;;1.70;;
52041;SDS011;38052;45.944;13.624;2022-10-23T06:46:35;3.47;;;1.05;;
52041;SDS011;38052;45.944;13.624;2022-10-23T06:49:02;8.68;;;1.20;;
52041;SDS011;38052;45.944;13.624;2022-10-23T06:51:28;4.57;;;0.90;;
52041;SDS011;38052;45.944;13.624;2022-10-23T06:53:55;2.83;;;1.17;;
52041;SDS011;38052;45.944;13.624;2022-10-23T06:56:21;4.13;;;1.00;;
52041;SDS011;38052;45.944;13.624;2022-10-23T06:58:49;5.82;;;1.55;;
52041;SDS011;38052;45.944;13.624;2022-10-23T07:01:15;6.82;;;1.85;;
52041;SDS011;38052;45.944;13.624;2022-10-23T07:03:42;3.95;;;1.48;;
52041;SDS011;38052;45.944;13.624;2022-10-23T07:06:09;9.73;;;1.65;;
52041;SDS011;38052;45.944;13.624;2022-10-23T07:08:35;3.78;;;1.67;;
52041;SDS011;38052;45.944;13.624;2022-10-23T07:11:06;5.70;;;1.40;;
52041;SDS011;38052;45.944;13.624;2022-10-23T07:13:33;5.13;;;1.83;;
52041;SDS011;38052;45.944;13.624;2022-10-23T07:16:10;3.03;;;1.40;;
52041;SDS011;38052;45.944;13.624;2022-10-23T07:18:36;3.55;;;1.67;;
52041;SDS011;38052;45.944;13.624;2022-10-23T07:21:02;7.85;;;1.80;;
52041;SDS011;38052;45.944;13.624;2022-10-23T07:23:30;7.10;;;2.28;;
52041;SDS011;38052;45.944;13.624;2022-10-23T07:26:10;11.25;;;2.42;;
52041;SDS011;38052;45.944;13.624;2022-10-23T07:28:39;7.15;;;2.13;;
52041;SDS011;38052;45.944;13.624;2022-10-23T07:31:05;5.20;;;2.15;;
52041;SDS011;38052;45.944;13.624;2022-10-23T07:33:32;4.72;;;1.75;;
52041;SDS011;38052;45.944;13.624;2022-10-23T07:35:59;5.68;;;1.70;;
52041;SDS011;38052;45.944;13.624;2022-10-23T07:38:25;5.50;;;1.85;;
52041;SDS011;38052;45.944;13.624;2022-10-23T07:40:52;2.72;;;1.67;;
52041;SDS011;38052;45.944;13.624;2022-10-23T07:43:18;6.15;;;2.00;;
52041;SDS011;38052;45.944;13.624;2022-10-23T07:45:45;5.45;;;1.50;;
52041;SDS011;38052;45.944;13.624;2022-10-23T07:48:12;3.67;;;1.48;;
52041;SDS011;38052;45.944;13.624;2022-10-23T07:50:38;5.72;;;1.58;;
52041;SDS011;38052;45.944;13.624;2022-10-23T07:53:04;2.80;;;1.13;;
52041;SDS011;38052;45.944;13.624;2022-10-23T07:55:31;7.15;;;2.50;;
52041;SDS011;38052;45.944;13.624;2022-10-23T07:57:57;7.70;;;1.60;;
52041;SDS011;38052;45.944;13.624;2022-10-23T08:00:23;5.78;;;2.10;;
52041;SDS011;38052;45.944;13.624;2022-10-23T08:02:50;5.00;;;2.22;;
52041;SDS011;38052;45.944;13.624;2022-10-23T08:05:20;3.97;;;2.10;;
52041;SDS011;38052;45.944;13.624;2022-10-23T08:07:46;7.90;;;2.40;;
52041;SDS011;38052;45.944;13.624;2022-10-23T08:10:13;5.28;;;2.05;;
52041;SDS011;38052;45.944;13.624;2022-10-23T08:12:39;9.27;;;3.17;;
52041;SDS011;38052;45.944;13.624;2022-10-23T08:15:05;4.55;;;1.83;;
52041;SDS011;38052;45.944;13.624;2022-10-23T08:17:32;11.57;;;2.90;;
52041;SDS011;38052;45.944;13.624;2022-10-23T08:19:58;8.10;;;2.17;;
52041;SDS011;38052;45.944;13.624;2022-10-23T08:22:25;4.43;;;2.20;;
52041;SDS011;38052;45.944;13.624;2022-10-23T08:24:51;6.10;;;2.47;;
52041;SDS011;38052;45.944;13.624;2022-10-23T08:27:17;8.82;;;3.03;;
52041;SDS011;38052;45.944;13.624;2022-10-23T08:29:43;5.30;;;2.38;;
52041;SDS011;38052;45.944;13.624;2022-10-23T08:32:10;7.00;;;2.38;;
52041;SDS011;38052;45.944;13.624;2022-10-23T08:34:36;5.85;;;2.65;;
52041;SDS011;38052;45.944;13.624;2022-10-23T08:37:02;8.75;;;2.90;;
52041;SDS011;38052;45.944;13.624;2022-10-23T08:39:29;11.52;;;3.33;;
52041;SDS011;38052;45.944;13.624;2022-10-23T08:41:55;5.93;;;2.53;;
52041;SDS011;38052;45.944;13.624;2022-10-23T08:44:31;7.93;;;2.88;;
52041;SDS011;38052;45.944;13.624;2022-10-23T08:47:10;8.48;;;3.03;;
52041;SDS011;38052;45.944;13.624;2022-10-23T08:49:50;6.18;;;2.53;;
52041;SDS011;38052;45.944;13.624;2022-10-23T08:52:29;4.85;;;2.88;;
52041;SDS011;38052;45.944;13.624;2022-10-23T08:55:14;7.65;;;3.60;;
52041;SDS011;38052;45.944;13.624;2022-10-23T08:57:44;6.50;;;2.63;;
52041;SDS011;38052;45.944;13.624;2022-10-23T09:00:14;9.73;;;3.45;;
52041;SDS011;38052;45.944;13.624;2022-10-23T09:02:42;9.35;;;3.78;;
52041;SDS011;38052;45.944;13.624;2022-10-23T09:05:29;14.00;;;3.42;;
52041;SDS011;38052;45.944;13.624;2022-10-23T09:12:49;6.00;;;3.58;;
52041;SDS011;38052;45.944;13.624;2022-10-23T09:17:45;9.40;;;4.70;;
52041;SDS011;38052;45.944;13.624;2022-10-23T09:20:20;15.70;;;5.60;;
52041;SDS011;38052;45.944;13.624;2022-10-23T09:22:47;11.80;;;4.97;;
52041;SDS011;38052;45.944;13.624;2022-10-23T09:25:19;10.73;;;4.43;;
52041;SDS011;38052;45.944;13.624;2022-10-23T09:27:47;7.65;;;4.30;;
52041;SDS011;38052;45.944;13.624;2022-10-23T09:30:23;11.00;;;5.72;;
52041;SDS011;38052;45.944;13.624;2022-10-23T09:32:49;15.25;;;5.50;;
52041;SDS011;38052;45.944;13.624;2022-10-23T09:35:20;11.18;;;4.75;;
52041;SDS011;38052;45.944;13.624;2022-10-23T09:37:46;10.75;;;4.57;;
52041;SDS011;38052;45.944;13.624;2022-10-23T09:40:18;8.93;;;5.35;;
52041;SDS011;38052;45.944;13.624;2022-10-23T09:42:53;12.60;;;4.28;;
52041;SDS011;38052;45.944;13.624;2022-10-23T09:45:24;8.00;;;4.18;;
52041;SDS011;38052;45.944;13.624;2022-10-23T09:47:50;8.05;;;3.75;;
52041;SDS011;38052;45.944;13.624;2022-10-23T09:50:20;7.32;;;3.95;;
52041;SDS011;38052;45.944;13.624;2022-10-23T09:52:55;11.65;;;3.67;;
52041;SDS011;38052;45.944;13.624;2022-10-23T09:55:22;9.05;;;3.97;;
52041;SDS011;38052;45.944;13.624;2022-10-23T09:57:49;7.07;;;3.60;;
52041;SDS011;38052;45.944;13.624;2022-10-23T10:00:22;4.07;;;3.00;;
52041;SDS011;38052;45.944;13.624;2022-10-23T10:02:56;7.25;;;3.30;;
52041;SDS011;38052;45.944;13.624;2022-10-23T10:05:27;5.45;;;2.70;;
52041;SDS011;38052;45.944;13.624;2022-10-23T10:10:44;6.75;;;3.13;;
52041;SDS011;38052;45.944;13.624;2022-10-23T10:18:46;6.50;;;3.22;;
52041;SDS011;38052;45.944;13.624;2022-10-23T10:36:12;10.43;;;4.75;;
52041;SDS011;38052;45.944;13.624;2022-10-23T10:38:49;7.07;;;3.88;;
52041;SDS011;38052;45.944;13.624;2022-10-23T10:41:32;9.93;;;4.28;;
52041;SDS011;38052;45.944;13.624;2022-10-23T10:48:58;10.07;;;4.18;;
52041;SDS011;38052;45.944;13.624;2022-10-23T10:51:30;13.95;;;4.95;;
52041;SDS011;38052;45.944;13.624;2022-10-23T10:54:42;10.23;;;5.47;;
52041;SDS011;38052;45.944;13.624;2022-10-23T10:56:47;7.40;;;4.60;;
52041;SDS011;38052;45.944;13.624;2022-10-23T10:59:23;9.50;;;4.45;;
52041;SDS011;38052;45.944;13.624;2022-10-23T11:04:42;8.82;;;5.03;;
52041;SDS011;38052;45.944;13.624;2022-10-23T11:07:11;9.18;;;4.50;;
52041;SDS011;38052;45.944;13.624;2022-10-23T11:09:39;9.57;;;5.20;;
52041;SDS011;38052;45.944;13.624;2022-10-23T11:12:13;10.02;;;5.32;;
52041;SDS011;38052;45.944;13.624;2022-10-23T11:14:41;13.82;;;5.88;;
52041;SDS011;38052;45.944;13.624;2022-10-23T11:19:39;8.80;;;5.85;;
52041;SDS011;38052;45.944;13.624;2022-10-23T11:22:14;16.60;;;7.18;;
52041;SDS011;38052;45.944;13.624;2022-10-23T11:38:29;12.20;;;6.88;;
52041;SDS011;38052;45.944;13.624;2022-10-23T11:40:57;18.33;;;7.53;;
52041;SDS011;38052;45.944;13.624;2022-10-23T11:43:25;18.38;;;7.80;;
52041;SDS011;38052;45.944;13.624;2022-10-23T11:45:52;15.00;;;7.10;;
52041;SDS011;38052;45.944;13.624;2022-10-23T11:48:19;12.73;;;6.63;;
52041;SDS011;38052;45.944;13.624;2022-10-23T11:51:04;16.38;;;7.70;;
52041;SDS011;38052;45.944;13.624;2022-10-23T11:58:25;19.88;;;9.00;;
52041;SDS011;38052;45.944;13.624;2022-10-23T12:01:18;18.50;;;9.15;;
52041;SDS011;38052;45.944;13.624;2022-10-23T12:06:37;16.10;;;8.70;;
52041;SDS011;38052;45.944;13.624;2022-10-23T12:09:17;16.98;;;8.93;;
52041;SDS011;38052;45.944;13.624;2022-10-23T12:11:48;19.50;;;7.63;;
52041;SDS011;38052;45.944;13.624;2022-10-23T12:14:32;13.68;;;8.68;;
52041;SDS011;38052;45.944;13.624;2022-10-23T12:16:59;13.02;;;7.57;;
52041;SDS011;38052;45.944;13.624;2022-10-23T12:19:26;19.73;;;7.35;;
52041;SDS011;38052;45.944;13.624;2022-10-23T12:21:54;14.75;;;6.93;;
52041;SDS011;38052;45.944;13.624;2022-10-23T12:24:26;14.63;;;8.18;;
52041;SDS011;38052;45.944;13.624;2022-10-23T12:39:33;16.42;;;9.35;;
52041;SDS011;38052;45.944;13.624;2022-10-23T12:42:02;17.35;;;8.75;;
52041;SDS011;38052;45.944;13.624;2022-10-23T12:44:28;14.82;;;7.78;;
52041;SDS011;38052;45.944;13.624;2022-10-23T12:46:56;16.90;;;7.80;;
52041;SDS011;38052;45.944;13.624;2022-10-23T12:49:24;15.20;;;7.32;;
52041;SDS011;38052;45.944;13.624;2022-10-23T12:51:58;19.83;;;8.23;;
52041;SDS011;38052;45.944;13.624;2022-10-23T12:54:25;16.30;;;9.48;;
52041;SDS011;38052;45.944;13.624;2022-10-23T12:56:52;17.67;;;9.00;;
52041;SDS011;38052;45.944;13.624;2022-10-23T12:59:22;20.67;;;10.60;;
52041;SDS011;38052;45.944;13.624;2022-10-23T13:01:50;17.05;;;10.27;;
52041;SDS011;38052;45.944;13.624;2022-10-23T13:04:30;13.68;;;8.13;;
52041;SDS011;38052;45.944;13.624;2022-10-23T13:06:58;18.50;;;7.67;;
52041;SDS011;38052;45.944;13.624;2022-10-23T13:09:39;17.48;;;8.60;;
52041;SDS011;38052;45.944;13.624;2022-10-23T13:12:06;17.05;;;8.90;;
52041;SDS011;38052;45.944;13.624;2022-10-23T13:17:09;17.38;;;9.52;;
52041;SDS011;38052;45.944;13.624;2022-10-23T13:19:35;18.33;;;9.65;;
52041;SDS011;38052;45.944;13.624;2022-10-23T13:22:03;20.08;;;11.35;;
52041;SDS011;38052;45.944;13.624;2022-10-23T13:24:30;24.15;;;13.23;;
52041;SDS011;38052;45.944;13.624;2022-10-23T13:26:56;22.77;;;11.90;;
52041;SDS011;38052;45.944;13.624;2022-10-23T13:29:25;19.70;;;10.07;;
52041;SDS011;38052;45.944;13.624;2022-10-23T13:31:51;17.52;;;9.73;;
52041;SDS011;38052;45.944;13.624;2022-10-23T13:34:21;17.08;;;9.20;;
52041;SDS011;38052;45.944;13.624;2022-10-23T13:36:49;26.17;;;11.25;;
52041;SDS011;38052;45.944;13.624;2022-10-23T13:39:16;24.85;;;11.90;;
52041;SDS011;38052;45.944;13.624;2022-10-23T13:41:48;16.10;;;10.77;;
52041;SDS011;38052;45.944;13.624;2022-10-23T13:44:16;17.02;;;9.55;;
52041;SDS011;38052;45.944;13.624;2022-10-23T13:46:42;20.38;;;10.50;;
52041;SDS011;38052;45.944;13.624;2022-10-23T13:49:09;14.52;;;9.48;;
52041;SDS011;38052;45.944;13.624;2022-10-23T13:51:36;21.48;;;9.48;;
52041;SDS011;38052;45.944;13.624;2022-10-23T13:54:05;14.95;;;9.15;;
52041;SDS011;38052;45.944;13.624;2022-10-23T13:56:31;17.25;;;9.18;;
52041;SDS011;38052;45.944;13.624;2022-10-23T13:58:58;12.75;;;8.82;;
52041;SDS011;38052;45.944;13.624;2022-10-23T14:01:33;18.17;;;9.32;;
52041;SDS011;38052;45.944;13.624;2022-10-23T14:04:03;17.30;;;10.23;;
52041;SDS011;38052;45.944;13.624;2022-10-23T14:06:30;13.88;;;8.90;;
52041;SDS011;38052;45.944;13.624;2022-10-23T14:08:57;15.80;;;10.95;;
52041;SDS011;38052;45.944;13.624;2022-10-23T14:11:23;23.02;;;11.25;;
52041;SDS011;38052;45.944;13.624;2022-10-23T14:13:50;18.75;;;9.90;;
52041;SDS011;38052;45.944;13.624;2022-10-23T14:16:17;19.25;;;9.63;;
52041;SDS011;38052;45.944;13.624;2022-10-23T14:18:44;20.25;;;10.63;;
52041;SDS011;38052;45.944;13.624;2022-10-23T14:21:11;21.67;;;10.65;;
52041;SDS011;38052;45.944;13.624;2022-10-23T14:23:38;15.90;;;10.18;;
52041;SDS011;38052;45.944;13.624;2022-10-23T14:26:06;21.35;;;10.90;;
52041;SDS011;38052;45.944;13.624;2022-10-23T14:28:33;24.70;;;10.82;;
52041;SDS011;38052;45.944;13.624;2022-10-23T14:31:06;17.33;;;11.40;;
52041;SDS011;38052;45.944;13.624;2022-10-23T14:33:33;20.73;;;11.10;;
52041;SDS011;38052;45.944;13.624;2022-10-23T14:35:59;22.60;;;13.40;;
52041;SDS011;38052;45.944;13.624;2022-10-23T14:38:26;23.55;;;12.38;;
52041;SDS011;38052;45.944;13.624;2022-10-23T14:40:52;19.17;;;11.38;;
52041;SDS011;38052;45.944;13.624;2022-10-23T14:43:19;16.70;;;10.50;;
52041;SDS011;38052;45.944;13.624;2022-10-23T14:45:46;22.10;;;11.10;;
52041;SDS011;38052;45.944;13.624;2022-10-23T14:48:12;19.77;;;11.20;;
52041;SDS011;38052;45.944;13.624;2022-10-23T14:50:43;20.13;;;12.23;;
52041;SDS011;38052;45.944;13.624;2022-10-23T14:53:09;22.40;;;11.65;;
52041;SDS011;38052;45.944;13.624;2022-10-23T14:55:35;20.88;;;12.00;;
52041;SDS011;38052;45.944;13.624;2022-10-23T14:58:02;24.52;;;12.32;;
52041;SDS011;38052;45.944;13.624;2022-10-23T15:00:28;17.63;;;12.32;;
52041;SDS011;38052;45.944;13.624;2022-10-23T15:02:55;25.10;;;12.68;;
52041;SDS011;38052;45.944;13.624;2022-10-23T15:05:21;19.65;;;14.32;;
52041;SDS011;38052;45.944;13.624;2022-10-23T15:07:48;27.55;;;14.20;;
52041;SDS011;38052;45.944;13.624;2022-10-23T15:10:14;19.42;;;13.00;;
52041;SDS011;38052;45.944;13.624;2022-10-23T15:12:41;22.33;;;14.20;;
52041;SDS011;38052;45.944;13.624;2022-10-23T15:15:07;30.48;;;15.65;;
52041;SDS011;38052;45.944;13.624;2022-10-23T15:17:33;25.92;;;14.65;;
52041;SDS011;38052;45.944;13.624;2022-10-23T15:20:01;25.88;;;14.55;;
52041;SDS011;38052;45.944;13.624;2022-10-23T15:22:28;27.55;;;15.50;;
52041;SDS011;38052;45.944;13.624;2022-10-23T15:24:54;25.27;;;14.77;;
52041;SDS011;38052;45.944;13.624;2022-10-23T15:27:21;21.58;;;15.07;;
52041;SDS011;38052;45.944;13.624;2022-10-23T15:29:48;20.48;;;14.73;;
52041;SDS011;38052;45.944;13.624;2022-10-23T15:32:14;33.08;;;15.18;;
52041;SDS011;38052;45.944;13.624;2022-10-23T15:34:41;25.27;;;14.60;;
52041;SDS011;38052;45.944;13.624;2022-10-23T15:37:08;25.27;;;13.95;;
52041;SDS011;38052;45.944;13.624;2022-10-23T15:39:34;27.48;;;16.48;;
52041;SDS011;38052;45.944;13.624;2022-10-23T15:42:01;29.73;;;16.05;;
52041;SDS011;38052;45.944;13.624;2022-10-23T15:44:28;26.45;;;17.95;;
52041;SDS011;38052;45.944;13.624;2022-10-23T15:46:54;29.05;;;17.67;;
52041;SDS011;38052;45.944;13.624;2022-10-23T15:49:21;27.20;;;18.13;;
52041;SDS011;38052;45.944;13.624;2022-10-23T15:51:48;28.02;;;17.15;;
52041;SDS011;38052;45.944;13.624;2022-10-23T15:54:15;28.75;;;19.65;;
52041;SDS011;38052;45.944;13.624;2022-10-23T15:56:46;30.08;;;20.02;;
52041;SDS011;38052;45.944;13.624;2022-10-23T15:59:13;26.95;;;18.63;;
52041;SDS011;38052;45.944;13.624;2022-10-23T16:01:40;27.30;;;19.30;;
52041;SDS011;38052;45.944;13.624;2022-10-23T16:04:06;27.52;;;19.13;;
52041;SDS011;38052;45.944;13.624;2022-10-23T16:06:32;32.50;;;21.30;;
52041;SDS011;38052;45.944;13.624;2022-10-23T16:08:59;38.08;;;24.48;;
52041;SDS011;38052;45.944;13.624;2022-10-23T16:11:27;36.20;;;25.65;;
52041;SDS011;38052;45.944;13.624;2022-10-23T16:13:53;48.40;;;26.45;;
52041;SDS011;38052;45.944;13.624;2022-10-23T16:16:19;42.55;;;27.02;;
52041;SDS011;38052;45.944;13.624;2022-10-23T16:18:46;33.95;;;24.27;;
52041;SDS011;38052;45.944;13.624;2022-10-23T16:21:22;40.65;;;25.60;;